METAR EFET 151820Z AUTO 21003KT 190V250 CAVOK M10/M12 Q1018=
METAR EFHA 151820Z AUTO 21003KT 130V260 9999 OVC004 M01/M01 Q1026=
METAR EFHK 151820Z 03005KT CAVOK M01/M01 Q1027 NOSIG=
METAR EFIV 151820Z AUTO 21008KT CAVOK M06/M07 Q1018=
METAR EFJO 151820Z AUTO 24004KT 190V290 9999 OVC011 00/M02 Q1027=
METAR EFJY 151820Z AUTO 18005KT 150V220 9999 OVC004 M00/M01 Q1026=
METAR EFKE 151820Z 22007KT 170V240 9999 OVC007 00/M01 Q1023=
METAR EFKI 151820Z AUTO 19005KT 150V220 9999 OVC018 M00/M01 Q1025=
METAR EFKK 151820Z AUTO 19008KT 9999 -SHRA OVC007 02/00 Q1024=
METAR EFKS 151820Z AUTO 25005KT 9999 OVC009 M02/M03 Q1022=
METAR EFKT 151820Z 13001KT CAVOK M15/M17 Q1019=
METAR EFKU 151820Z AUTO 19004KT 9999 OVC019 01/M01 Q1027=
METAR EFLP 151820Z AUTO 07003KT 9999 OVC014 01/M02 Q1027=
METAR EFMA 151820Z AUTO 03007KT 9999 OVC003 03/03 Q1025=
METAR EFMI 151820Z AUTO 9999 BKN015 ///// Q////=
METAR EFOU 151820Z AUTO 17004KT 120V200 9999 OVC019 01/M00 Q1024=
METAR EFPO 151820Z AUTO 11003KT 060V150 9999 OVC014 02/01 Q1026=
METAR EFRO 151820Z AUTO 23010KT 1200 R21/1600U -FZDZSN VV002 M04/M04 Q1021=
METAR EFSA 151820Z AUTO VRB02KT 9999 OVC013 00/M02 Q1027=
METAR EFSI 151820Z AUTO 17004KT 140V210 9999 FEW009 BKN011 OVC014 02/01 Q1025=
METAR EFTP 151820Z AUTO VRB02KT 9999 SCT003 OVC005/// 01/00 Q1027=
METAR EFTU 151820Z AUTO 09004KT 7000 BKN021 01/01 Q1026=
METAR EFUT 151820Z AUTO 07005KT CAVOK M02/M03 Q1027=
METAR EFVA 151820Z AUTO 21007KT 9999 OVC009 02/00 Q1025=
SPECI EFLA 151831Z AUTO VRB02KT 1000 BR SCT001/// OVC003/// M02/M02 Q1027=
ILHF 151820Z AUTO 01002KT 6000 NCD M02/M02 Q1027=
ILHK 151820Z AUTO 04005KT CAVOK M01/M01 Q1027=
ILIK 151820Z AUTO 05003KT 9999 OVC007 01/01 Q1026=
ILJY 151820Z AUTO 22002KT 9999 BKN003 OVC005 M00/M01 Q1026=
ILKA 151820Z AUTO 19006KT 9999 OVC011 02/01 Q1025=
ILKM 151820Z AUTO 24005KT 1300 -SN SCT004 BKN008 OVC011 M03/M03 Q1021=
ILMI 151830Z AUTO 00000KT 9999 OVC015 M02/M02 Q1027=
ILPR 151820Z AUTO 03003KT CAVOK M02/M02 Q1027=
ILPU 151820Z AUTO 18004KT 9999 BKN011 OVC014 M01/M01 Q1024=
ILQA 151830Z AUTO 12003KT 9999 OVC009 M05/M05 Q1021=
ILQB 151830Z AUTO 24005KT CAVOK M09/M10 Q1017=
ILQC 151820Z AUTO 04003KT 9999 BKN003 M16/M18 Q1019=
ILQD 151820Z AUTO /////KT CAVOK M08/M09 Q////=
ILQE 151820Z AUTO 16004KT 9999 BKN002 M13/M14 Q1022=
ILQH 151820Z AUTO 18015KT 9999 FEW012 BKN020 01/00 Q1023=
ILQI 151820Z AUTO 25003KT //// // NCD M07/M08 Q1018=
ILQJ 151820Z AUTO 23010KT 9999 OVC008 01/01 Q1023=
ILQK 151820Z AUTO 26011KT 1100 -SHSN ////// M06/M07 Q1015=
ILQL 151820Z AUTO 16009KT 9999 ////// 01/M00 Q1024=
ILQM 151820Z AUTO /////KT CAVOK M07/M08 Q////=
ILQN 151820Z AUTO 19002KT CAVOK M12/M12 Q1016=
ILQO 151820Z AUTO 20003KT 9999 BKN002 M08/M08 Q1021=
ILQP 151820Z AUTO 19014KT 9999 ////// 02/01 Q1024=
ILQQ 151820Z AUTO 29002KT 9999 OVC004 M06/M07 Q1022=
ILQR 151820Z AUTO 25005KT 6000 BKN000 OVC002 M04/M04 Q1022=
ILQS 151820Z AUTO 23003KT 8000 -SN FEW011 OVC014 M02/M03 Q1024=
ILQT 151820Z AUTO 17004KT 0200 FG VV/// M08/M09 Q1017=
ILQU 151820Z AUTO 16005KT 9999 FEW037 SCT068 BKN098 M05/M06 Q1017=
ILQV 151820Z AUTO 22003KT CAVOK M07/M07 Q1018=
ILQX 151820Z AUTO 17004KT 9999 OVC020 00/00 Q1024=
ILQY 151820Z AUTO 19006KT 9999 OVC017 00/M00 Q1024=
ILRO 151820Z AUTO /////KT 1100 ////// M04/M04 Q////=
ILRU 151830Z AUTO 21008KT 5000 -SHSN OVC003 M00/M00 Q1022=
ILWA 151820Z AUTO 05006KT CAVOK 01/01 Q1027=
ILWD 151820Z AUTO /////KT //// // OVC006 M00/M01 Q////=
ILWE 151820Z AUTO 23006KT CAVOK M05/M06 Q1017=
ILWF 151820Z AUTO 22005KT 2700 -SN OVC006 M01/M01 Q////=
ILWG 151820Z AUTO /////KT 9999 OVC004 M00/M01 Q1026=
ILXA 151820Z AUTO /////KT 9999 OVC005 01/M00 Q1025=
ILXB 151820Z AUTO 11003KT 9999 OVC014 02/01 Q1026=
ILXC 151820Z AUTO 27002KT 9999 BKN015 01/M01 Q1027=
ILXD 151820Z AUTO /////KT 9999 OVC012 00/M02 Q1028=
ILXE 151830Z AUTO 20005KT 9999 BKN014 OVC017 M00/M01 Q1025=
ILXF 151820Z AUTO 11007KT 9999 BKN012 OVC025 03/03 Q1026=
ILXG 151830Z AUTO 20010KT 9999 OVC007 03/02 Q1026=
ILXI 151820Z AUTO 23004KT 9999 SG OVC013 M00/M02 Q1027=
ILXJ 151820Z AUTO 19005KT 9999 OVC016 M00/M01 Q1025=
ILXK 151820Z AUTO 24004KT 7000 -SN FEW010 BKN014 OVC018 M01/M02 Q1025=
ILXL 151820Z AUTO /////KT 9999 OVC007 01/00 Q1025=
ILXM 151820Z AUTO /////KT 9999 UP OVC010 M00/M01 Q////=
ILXN 151820Z AUTO 12004KT 8000 FEW006 OVC008 00/M00 Q1026=
ILXO 151820Z AUTO 19005KT 9999 FEW007 OVC009 02/02 Q1025=
ILXP 151820Z AUTO 14008KT 9999 BKN010 OVC013 03/02 Q1026=
ILXQ 151820Z AUTO /////KT 0150 FG VV/// M03/M03 Q////=
ILXR 151820Z AUTO 00000KT 9999 BKN009 BKN013 M01/M01 Q1026=
ILXS 151830Z AUTO 25003KT 4100 -SHRA OVC010 M00/M01 Q1025=
ILXT 151820Z AUTO 22014KT 9999 OVC011 02/00 Q1024=
ILXU 151820Z AUTO /////KT 9999 OVC016 01/M01 Q1027=
ILXV 151820Z AUTO 20004KT 9999 OVC009 00/M01 Q1026=
ILXW 151820Z AUTO 21006KT 9999 OVC011 01/M01 Q1025=
ILXX 151820Z AUTO 21006KT 9999 OVC010 02/00 Q1025=
ILXY 151820Z AUTO 23003KT 9999 OVC019 01/M01 Q1026=
ILXZ 151830Z AUTO 06003KT 9999 OVC015 01/M01 Q////=
ILYL 151820Z AUTO 19006KT 9999 SCT012 OVC016 01/M00 Q1025=
ILZA 151820Z AUTO 04008KT CAVOK 02/01 Q1027=
ILZB 151820Z AUTO 04005KT 9999 OVC005 04/03 Q1025=
ILZC 151820Z AUTO /////KT 9999 OVC014 01/M02 Q1027=
ILZD 151820Z AUTO 03008KT CAVOK 01/M01 Q1027=
ILZE 151820Z AUTO 06006KT 9999 FEW009 01/M00 Q1027=
ILZF 151830Z AUTO 03005KT CAVOK M01/M01 Q1026=
ILZG 151820Z AUTO /////KT 8000 OVC006 00/// Q1027=
ILZH 151830Z AUTO /////KT 9999 OVC004 01/01 Q1027=
ILZI 151820Z AUTO 10009KT 9999 FEW005 OVC007 04/03 Q1026=
ILZJ 151820Z AUTO 09003KT 6000 BKN001 BKN003 01/01 Q1026=
ILZK 151820Z AUTO 10007KT 9999 SCT004 BKN006 OVC032 06/05 Q1025=
ILZM 151820Z AUTO /////KT 9999 OVC006 01/01 Q1027=
ILZO 151810Z AUTO 08009KT 9999 FEW015 04/01 Q1027=
ILZP 151820Z AUTO 13005KT 9999 OVC021 02/02 Q1026=
ILZQ 151820Z AUTO 01001KT CAVOK M04/M04 Q1027=
ILZR 151820Z AUTO 09004KT CAVOK 02/02 Q1026=
ILZS 151820Z AUTO 06010KT 9999 SCT013 03/02 Q1026=
ILZT 151820Z AUTO 05012KT 9999 FEW011 04/03 Q1026=
ILZU 151820Z AUTO 09014KT 9999 FEW020 06/03 Q1025=
ILZV 151820Z AUTO 01003KT 9000 NCD M03/M03 Q1027=
ILZW 151820Z AUTO 06010KT CAVOK 04/02 Q1027=
ILZX 151820Z AUTO 05005KT CAVOK M01/M01 Q1027=
ILZY 151830Z AUTO 06011KT 9999 FEW012 OVC032 05/04 Q1024=
ILZZ 151830Z AUTO /////KT 9999 FEW003 M02/M02 Q1027=